Airfield :
LOGIN :

Register | Disclaimer

   EN    FR    IT 

 










Legend :    VFR   Marginal VFR   IFR   Intensive IFR   Very Intensive IFR
Visi :
Ceiling :
>= 8 km
>= 3000ft
5 to 8 km
1000 to 3000 ft
1500m to 5 km
500 to 1000 ft
800 to 1500m
200 to 500 ft
< 800m
< 200 ft
Symbols :   Thunderstorms  Fog  Heavy snow  Heavy precipitations  Wind > 20 kt
SIGMETs :     Misc.  Thunderstorms  Icing  Turbulence  Mountain Waves  Volcanic Ashes






- Airport Elevation : 100 ft


EBDT - Schaffen

CURRENT METAR :
  • 070755Z AUTO 02003KT 0050 FG OVC001/// M02/M02 Q1027 RED

EXPIRED METARs :
  • 070725Z AUTO 01003KT 0050 FG OVC002/// M02/M03 Q1027 RED
  • 070655Z AUTO 36003KT 0550 FG BKN001/// M03/M03 Q1026 RED
  • 070625Z AUTO VRB02KT 0500 FG BKN002/// OVC100/// M02/M02 Q1026 RED
  • 070555Z AUTO VRB01KT 0300 FG FEW100/// BKN110/// BKN140/// M02/M02 Q1026 RED
  • 070525Z AUTO VRB02KT 0750 FG SCT110/// BKN130/// M02/M02 Q1027 RED
  • 070511Z AUTO VRB02KT 0550 BR FEW100/// BKN120/// OVC140/// M02/M02 Q1027 RED

Expired Forecast.



MET'MAP, your aeronautical weather chart ! - Copyright ORBIFLY December 2007 - Disclaimer

ORBIFLY MET'MAP TEAM :

Programming & Development : Alexandra Zaïnal
Concept & original design : Baudouin d'Aumeries
Assistance for programming : Marc-Olivier Méhu
Technical & hardware support : Manuel Goepfert

Contact : metmap@orbifly.com




SOURCES & CREDITS :

   NOAA